Time;durP1;ratioP1;P1;durP2;ratioP2;P2;SDS_P1;SDS_P2;PMS_P1;PMS_P2;Temp;Humidity;BMP_temperature;BMP_pressure;BME280_temperature;BME280_humidity;BME280_pressure;Samples;Min_cycle;Max_cycle;Signal;HPM_P1;HPM_P2
2022/04/04 00:01:23;;;;;;;21.58;11.30;;;4.00;99.90;;;;;;5105317;28;20032;-58
2022/04/04 00:03:49;;;;;;;19.25;11.70;;;4.00;99.90;;;;;;5109806;28;20019;-58
2022/04/04 00:06:14;;;;;;;22.08;11.60;;;4.00;99.90;;;;;;5110618;28;20144;-59
2022/04/04 00:08:40;;;;;;;17.83;11.25;;;4.00;99.90;;;;;;5104151;28;20023;-57
2022/04/04 00:11:06;;;;;;;16.75;10.65;;;4.00;99.90;;;;;;5112560;28;20050;-57
2022/04/04 00:13:32;;;;;;;15.57;10.30;;;3.90;99.90;;;;;;5110954;27;20022;-60
2022/04/04 00:15:58;;;;;;;13.77;10.73;;;3.90;99.90;;;;;;5111135;28;20107;-59
2022/04/04 00:18:23;;;;;;;14.63;10.60;;;3.90;99.90;;;;;;5110208;28;20027;-59
2022/04/04 00:20:52;;;;;;;16.00;10.38;;;3.90;99.90;;;;;;5110614;28;20427;-59
2022/04/04 00:23:18;;;;;;;18.40;11.18;;;3.80;99.90;;;;;;5111400;28;20023;-59
2022/04/04 00:25:45;;;;;;;17.27;12.32;;;3.70;99.90;;;;;;5113749;28;20077;-59
2022/04/04 00:28:12;;;;;;;16.73;11.70;;;3.70;99.90;;;;;;5112079;28;20408;-60
2022/04/04 00:30:38;;;;;;;18.23;12.05;;;3.50;99.90;;;;;;5113605;28;20043;-60
2022/04/04 00:33:05;;;;;;;14.30;10.80;;;3.40;99.90;;;;;;5114061;28;20036;-58
2022/04/04 00:35:30;;;;;;;20.50;11.45;;;3.40;99.90;;;;;;5113424;28;20032;-58
2022/04/04 00:37:59;;;;;;;18.67;11.27;;;3.40;99.90;;;;;;5113109;28;20046;-57
2022/04/04 00:40:25;;;;;;;16.52;11.70;;;3.40;99.90;;;;;;5113638;28;20023;-60
2022/04/04 00:42:51;;;;;;;16.25;11.30;;;3.40;99.90;;;;;;5112093;28;20031;-59
2022/04/04 00:45:17;;;;;;;19.30;12.18;;;3.30;99.90;;;;;;5113784;28;20038;-60
2022/04/04 00:47:43;;;;;;;21.58;12.50;;;3.20;99.90;;;;;;5110230;28;20445;-60
2022/04/04 00:50:09;;;;;;;18.15;12.05;;;3.20;99.90;;;;;;5114071;27;20028;-56
2022/04/04 00:52:34;;;;;;;18.02;11.63;;;3.20;99.90;;;;;;5113012;28;20240;-57
2022/04/04 00:55:00;;;;;;;24.13;12.02;;;3.20;99.90;;;;;;5113802;28;20198;-60
2022/04/04 00:57:27;;;;;;;23.52;12.10;;;3.20;99.90;;;;;;5113759;28;20632;-56
2022/04/04 00:59:53;;;;;;;15.93;11.43;;;3.20;99.90;;;;;;5110240;28;20120;-56
2022/04/04 01:02:19;;;;;;;18.40;11.90;;;3.10;99.90;;;;;;5113922;27;20078;-59
2022/04/04 01:04:44;;;;;;;17.38;11.13;;;3.10;99.90;;;;;;5113491;27;20103;-59
2022/04/04 01:07:10;;;;;;;17.20;11.82;;;3.10;99.90;;;;;;5113805;28;20032;-59
2022/04/04 01:09:35;;;;;;;15.25;10.80;;;3.10;99.90;;;;;;5112460;28;20030;-58
2022/04/04 01:12:07;;;;;;;15.18;11.63;;;3.10;99.90;;;;;;5113172;28;20040;-60
2022/04/04 01:14:34;;;;;;;18.65;12.15;;;3.00;99.90;;;;;;5113430;28;20023;-57
2022/04/04 01:17:00;;;;;;;18.40;11.57;;;3.00;99.90;;;;;;5113644;28;20047;-58
2022/04/04 01:19:26;;;;;;;16.83;11.65;;;3.00;99.90;;;;;;5113351;28;20085;-58
2022/04/04 01:21:53;;;;;;;28.20;12.80;;;2.90;99.90;;;;;;5113497;28;20032;-57
2022/04/04 01:24:19;;;;;;;21.02;12.90;;;2.90;99.90;;;;;;5112780;28;20055;-58
2022/04/04 01:26:51;;;;;;;19.17;11.85;;;2.80;99.90;;;;;;5110696;28;20059;-60
2022/04/04 01:29:20;;;;;;;20.63;12.88;;;2.70;99.90;;;;;;5113142;28;20103;-58
2022/04/04 01:31:46;;;;;;;16.17;12.10;;;2.60;99.90;;;;;;5113581;28;20027;-59
2022/04/04 01:34:12;;;;;;;18.27;13.23;;;2.60;99.90;;;;;;5112971;28;20051;-56
2022/04/04 01:36:37;;;;;;;23.23;13.35;;;2.40;99.90;;;;;;5114143;28;20492;-59
2022/04/04 01:39:03;;;;;;;26.90;14.45;;;2.20;99.90;;;;;;5113491;28;20030;-59
2022/04/04 01:41:29;;;;;;;28.20;13.18;;;2.00;99.90;;;;;;5112650;28;20020;-56
2022/04/04 01:43:55;;;;;;;20.60;13.60;;;1.90;99.90;;;;;;5113021;28;20027;-57
2022/04/04 01:46:29;;;;;;;21.23;15.23;;;1.80;99.90;;;;;;5112995;28;20027;-56
2022/04/04 01:48:57;;;;;;;25.73;14.00;;;1.70;99.90;;;;;;5113370;27;20034;-57
2022/04/04 01:51:23;;;;;;;26.40;16.27;;;1.70;99.90;;;;;;5112674;28;20453;-57
2022/04/04 01:53:49;;;;;;;25.30;15.52;;;1.60;99.90;;;;;;5111423;28;20110;-59
2022/04/04 01:56:15;;;;;;;24.95;15.48;;;1.60;99.90;;;;;;5112648;28;20030;-56
2022/04/04 01:58:41;;;;;;;24.77;16.40;;;1.60;99.90;;;;;;5113221;28;20028;-58
2022/04/04 02:01:15;;;;;;;28.67;17.48;;;1.70;99.90;;;;;;5112531;28;20043;-58
2022/04/04 02:03:42;;;;;;;25.05;14.77;;;1.70;99.90;;;;;;5111275;28;20583;-57
2022/04/04 02:06:07;;;;;;;28.42;16.13;;;1.70;99.90;;;;;;5110500;28;20034;-57
2022/04/04 02:08:33;;;;;;;23.98;16.13;;;1.70;99.90;;;;;;5112455;28;20024;-59
2022/04/04 02:11:00;;;;;;;25.83;15.82;;;1.70;99.90;;;;;;5112370;28;20486;-57
2022/04/04 02:13:25;;;;;;;30.05;16.20;;;1.80;99.90;;;;;;5111377;28;20118;-59
2022/04/04 02:15:56;;;;;;;33.25;14.88;;;1.80;99.90;;;;;;5112845;28;20118;-56
2022/04/04 02:18:22;;;;;;;24.75;14.73;;;1.80;99.90;;;;;;5110634;28;20030;-59
2022/04/04 02:20:48;;;;;;;24.45;15.80;;;1.80;99.90;;;;;;5111548;28;20020;-60
2022/04/04 02:23:18;;;;;;;21.77;15.18;;;1.80;99.90;;;;;;5110630;27;20107;-58
2022/04/04 02:25:55;;;;;;;22.58;13.73;;;1.90;99.90;;;;;;5111492;28;20395;-60
2022/04/04 02:28:21;;;;;;;25.70;15.07;;;1.90;99.90;;;;;;5106336;28;20023;-60
2022/04/04 02:30:49;;;;;;;30.40;15.60;;;1.90;99.90;;;;;;5111676;28;20031;-60
2022/04/04 02:33:18;;;;;;;26.20;15.32;;;1.90;99.90;;;;;;5110585;28;20030;-58
2022/04/04 02:35:44;;;;;;;24.60;14.88;;;1.90;99.90;;;;;;5111281;28;20160;-60
2022/04/04 02:38:11;;;;;;;27.52;15.13;;;1.90;99.90;;;;;;5110448;28;20509;-60
2022/04/04 02:40:37;;;;;;;25.35;15.05;;;1.90;99.90;;;;;;5110499;28;20019;-58
2022/04/04 02:43:04;;;;;;;25.77;15.52;;;1.80;99.90;;;;;;5110933;28;20062;-58
2022/04/04 02:45:30;;;;;;;23.73;13.55;;;1.70;99.90;;;;;;5109512;28;20020;-60
2022/04/04 02:47:55;;;;;;;25.38;13.65;;;1.60;99.90;;;;;;5111914;28;20591;-58
2022/04/04 02:50:22;;;;;;;27.90;14.48;;;1.60;99.90;;;;;;5111510;28;20023;-58
2022/04/04 02:58:01;;;;;;;23.30;15.23;;;1.60;99.90;;;;;;5087082;28;20135;-64
2022/04/04 03:00:27;;;;;;;30.35;16.15;;;1.70;99.90;;;;;;5090020;28;20107;-63
2022/04/04 03:02:54;;;;;;;26.08;15.25;;;1.70;99.90;;;;;;5089383;28;20024;-64
2022/04/04 03:05:20;;;;;;;25.50;16.08;;;1.70;99.90;;;;;;5084586;28;20024;-62
2022/04/04 03:07:46;;;;;;;24.15;14.10;;;1.70;99.90;;;;;;5090062;28;20093;-62
2022/04/04 03:10:13;;;;;;;25.15;14.57;;;1.80;99.90;;;;;;5066644;28;20032;-62
2022/04/04 03:12:47;;;;;;;23.67;14.00;;;1.80;99.90;;;;;;5084586;28;20024;-59
2022/04/04 03:15:17;;;;;;;29.23;17.85;;;1.80;99.90;;;;;;5085653;28;20036;-63
2022/04/04 03:17:44;;;;;;;26.27;14.52;;;1.80;99.90;;;;;;5088345;28;20036;-61
2022/04/04 03:20:12;;;;;;;23.42;14.85;;;1.80;99.90;;;;;;5079886;28;20016;-64
2022/04/04 03:22:39;;;;;;;28.92;16.05;;;1.80;99.90;;;;;;5087297;28;20095;-64
2022/04/04 03:25:05;;;;;;;24.58;15.52;;;1.80;99.90;;;;;;5088358;28;20039;-64
2022/04/04 03:27:30;;;;;;;26.80;15.27;;;1.80;99.90;;;;;;5089869;28;20059;-63
2022/04/04 03:29:56;;;;;;;26.67;14.98;;;1.80;99.90;;;;;;5088974;28;20525;-62
2022/04/04 03:32:22;;;;;;;29.73;16.05;;;1.90;99.90;;;;;;5088312;28;20379;-62
2022/04/04 03:34:47;;;;;;;26.50;15.40;;;1.90;99.90;;;;;;5087898;28;20032;-60
2022/04/04 03:37:13;;;;;;;28.30;15.60;;;1.80;99.90;;;;;;5069995;28;20024;-61
2022/04/04 03:39:39;;;;;;;22.55;14.80;;;1.80;99.90;;;;;;5087308;28;20122;-62
2022/04/04 03:42:05;;;;;;;30.52;16.75;;;1.80;99.90;;;;;;5085715;28;20028;-63
2022/04/04 03:44:30;;;;;;;27.05;16.33;;;1.70;99.90;;;;;;5071063;28;20032;-62
2022/04/04 03:46:56;;;;;;;28.92;16.60;;;1.70;99.90;;;;;;5086182;28;20036;-62
2022/04/04 03:49:21;;;;;;;26.35;15.93;;;1.70;99.90;;;;;;5089308;28;20401;-62
2022/04/04 03:51:47;;;;;;;31.20;16.42;;;1.80;99.90;;;;;;5089242;28;20035;-62
2022/04/04 03:54:13;;;;;;;28.75;14.73;;;1.80;99.90;;;;;;5083516;28;20028;-61
2022/04/04 03:56:39;;;;;;;27.60;15.80;;;1.70;99.90;;;;;;5089670;28;20032;-64
2022/04/04 03:59:04;;;;;;;33.15;16.15;;;1.80;99.90;;;;;;5087698;28;20052;-65
2022/04/04 04:01:30;;;;;;;31.05;17.02;;;1.80;99.90;;;;;;5088095;28;20418;-62
2022/04/04 04:03:56;;;;;;;36.92;16.60;;;1.90;99.90;;;;;;5078111;28;20024;-63
2022/04/04 04:06:22;;;;;;;28.27;16.20;;;1.90;99.90;;;;;;5083765;28;20032;-61
2022/04/04 04:08:48;;;;;;;30.63;15.50;;;2.00;99.90;;;;;;5085451;28;20032;-61
2022/04/04 04:11:16;;;;;;;34.00;15.80;;;2.10;99.90;;;;;;5084120;28;20028;-62
2022/04/04 04:13:43;;;;;;;25.30;14.63;;;2.20;99.90;;;;;;5089139;28;20107;-63
2022/04/04 04:16:15;;;;;;;28.95;15.68;;;2.30;99.90;;;;;;5083975;28;20097;-58
2022/04/04 04:18:41;;;;;;;28.85;16.50;;;2.40;99.90;;;;;;5087712;28;20035;-61
2022/04/04 04:21:09;;;;;;;28.00;14.55;;;2.40;99.90;;;;;;5082953;28;20016;-62
2022/04/04 04:23:37;;;;;;;29.38;14.57;;;2.30;99.90;;;;;;5083956;28;20899;-61
2022/04/04 04:26:08;;;;;;;30.50;15.18;;;2.40;99.90;;;;;;5087728;28;20028;-62
2022/04/04 04:28:34;;;;;;;29.60;14.90;;;2.40;99.90;;;;;;5085708;28;20024;-62
2022/04/04 04:31:00;;;;;;;25.95;13.80;;;2.40;99.90;;;;;;5081647;28;20024;-62
2022/04/04 04:33:26;;;;;;;24.17;14.10;;;2.50;99.90;;;;;;5085377;28;20091;-61
2022/04/04 04:35:53;;;;;;;35.35;16.42;;;2.50;99.90;;;;;;5082346;28;20020;-61
2022/04/04 04:38:18;;;;;;;29.65;14.27;;;2.60;99.90;;;;;;5083490;28;20099;-62
2022/04/04 04:40:44;;;;;;;29.67;14.07;;;2.60;99.90;;;;;;5083806;28;20115;-61
2022/04/04 04:43:10;;;;;;;26.95;13.77;;;2.60;99.90;;;;;;5090407;28;20029;-63
2022/04/04 04:45:35;;;;;;;30.20;12.57;;;2.70;99.90;;;;;;5085043;28;20506;-62
2022/04/04 04:48:01;;;;;;;27.60;13.30;;;2.80;99.90;;;;;;5090426;28;20032;-62
2022/04/04 04:50:27;;;;;;;29.45;14.48;;;2.70;99.90;;;;;;5083955;28;20024;-63
2022/04/04 04:52:54;;;;;;;29.75;13.82;;;2.70;99.90;;;;;;5087517;28;20039;-62
2022/04/04 04:55:21;;;;;;;30.83;13.52;;;2.70;99.90;;;;;;5080018;28;20063;-64
2022/04/04 04:57:47;;;;;;;26.60;12.65;;;2.80;99.90;;;;;;5086115;28;20031;-65
2022/04/04 05:00:16;;;;;;;24.13;13.40;;;2.80;99.90;;;;;;5088821;28;20024;-64
2022/04/04 05:02:41;;;;;;;23.02;12.57;;;2.80;99.90;;;;;;5086109;28;20100;-59
2022/04/04 05:05:07;;;;;;;27.98;12.75;;;2.80;99.90;;;;;;5085220;28;20074;-58
2022/04/04 05:07:33;;;;;;;25.25;12.93;;;2.90;99.90;;;;;;5067663;28;20081;-59
2022/04/04 05:09:59;;;;;;;24.83;12.68;;;2.90;99.90;;;;;;5089998;28;20540;-58
2022/04/04 05:12:25;;;;;;;24.15;12.75;;;3.00;99.90;;;;;;5090333;28;20500;-59
2022/04/04 05:14:50;;;;;;;25.33;11.90;;;3.00;99.90;;;;;;5081929;28;20109;-60
2022/04/04 05:17:16;;;;;;;26.85;10.95;;;3.00;99.90;;;;;;5092256;28;20043;-60
2022/04/04 05:19:42;;;;;;;23.67;12.27;;;3.10;99.90;;;;;;5088715;28;20016;-58
2022/04/04 05:22:07;;;;;;;24.35;12.65;;;3.10;99.90;;;;;;5090734;28;20544;-59
2022/04/04 05:24:34;;;;;;;26.27;12.50;;;3.20;99.90;;;;;;5091489;28;20024;-59
2022/04/04 05:27:00;;;;;;;25.77;12.52;;;3.10;99.90;;;;;;5089134;28;20020;-57
2022/04/04 05:29:26;;;;;;;23.92;11.55;;;3.10;99.90;;;;;;5091623;28;20402;-59
2022/04/04 05:31:56;;;;;;;22.95;10.50;;;3.20;99.90;;;;;;5091280;28;20028;-60
2022/04/04 05:34:22;;;;;;;23.33;11.88;;;3.30;99.90;;;;;;5086858;28;20024;-59
2022/04/04 05:36:49;;;;;;;23.65;12.05;;;3.20;99.90;;;;;;5087916;28;20032;-60
2022/04/04 05:39:15;;;;;;;18.42;11.93;;;3.30;99.90;;;;;;5093973;28;20085;-58
2022/04/04 05:41:40;;;;;;;19.40;10.80;;;3.40;99.90;;;;;;5091610;28;20032;-56
2022/04/04 05:44:06;;;;;;;21.85;12.15;;;3.50;99.90;;;;;;5088949;28;20034;-59
2022/04/04 05:46:33;;;;;;;21.83;12.25;;;3.50;99.90;;;;;;5085927;28;20555;-56
2022/04/04 05:49:00;;;;;;;26.33;11.40;;;3.60;99.90;;;;;;5085878;28;20039;-55
2022/04/04 05:51:26;;;;;;;21.95;11.63;;;3.60;99.90;;;;;;5086981;28;20525;-58
2022/04/04 05:53:52;;;;;;;19.70;10.90;;;3.70;99.90;;;;;;5088628;28;20082;-58
2022/04/04 05:56:18;;;;;;;34.28;12.90;;;3.70;99.90;;;;;;5090240;28;20055;-59
2022/04/04 05:58:43;;;;;;;56.88;15.13;;;3.80;99.90;;;;;;5091437;28;20084;-60
2022/04/04 06:01:09;;;;;;;27.58;12.43;;;3.80;99.90;;;;;;5092932;28;20082;-58
2022/04/04 06:03:35;;;;;;;24.00;11.77;;;3.80;99.90;;;;;;5091015;28;20081;-60
2022/04/04 06:06:02;;;;;;;24.00;11.18;;;3.90;99.90;;;;;;5091342;28;20420;-59
2022/04/04 06:08:28;;;;;;;19.23;10.63;;;3.90;99.90;;;;;;5090753;28;20389;-58
2022/04/04 06:10:53;;;;;;;19.25;11.07;;;4.00;99.90;;;;;;5092100;28;20029;-59
2022/04/04 06:13:19;;;;;;;19.30;11.40;;;4.10;99.90;;;;;;5092541;28;20024;-59
2022/04/04 06:15:47;;;;;;;20.33;11.57;;;4.10;99.90;;;;;;5090636;28;20035;-60
2022/04/04 06:18:13;;;;;;;17.95;10.25;;;4.10;99.90;;;;;;5091933;28;20066;-58
2022/04/04 06:20:40;;;;;;;19.38;11.52;;;4.10;99.90;;;;;;5091764;28;20069;-58
2022/04/04 06:23:06;;;;;;;20.88;11.50;;;4.10;99.90;;;;;;5091754;28;20024;-58
2022/04/04 06:25:31;;;;;;;21.42;10.68;;;4.20;99.90;;;;;;5091479;28;20505;-59
2022/04/04 06:27:58;;;;;;;19.20;9.88;;;4.20;99.90;;;;;;5091624;28;20028;-58
2022/04/04 06:30:24;;;;;;;19.90;10.27;;;4.20;99.90;;;;;;5091092;28;20035;-59
2022/04/04 06:32:50;;;;;;;23.75;10.60;;;4.30;99.90;;;;;;5085546;28;20032;-59
2022/04/04 06:35:16;;;;;;;17.58;10.07;;;4.40;99.90;;;;;;5090686;28;20508;-58
2022/04/04 06:37:43;;;;;;;20.55;10.48;;;4.40;99.90;;;;;;5088159;28;20024;-58
2022/04/04 06:40:10;;;;;;;24.30;11.60;;;4.50;99.90;;;;;;5085633;28;20052;-59
2022/04/04 06:42:37;;;;;;;16.98;10.20;;;4.50;99.90;;;;;;5091882;28;20520;-57
2022/04/04 06:45:04;;;;;;;17.70;9.57;;;4.50;99.90;;;;;;5091874;28;20623;-55
2022/04/04 06:47:30;;;;;;;16.48;9.52;;;4.50;99.90;;;;;;5085141;28;20025;-58
2022/04/04 06:49:57;;;;;;;16.33;8.95;;;4.50;99.90;;;;;;5088765;28;20421;-59
2022/04/04 06:52:23;;;;;;;18.83;9.40;;;4.60;99.90;;;;;;5092010;28;20044;-57
2022/04/04 06:54:48;;;;;;;14.98;8.82;;;4.60;99.90;;;;;;5090553;28;20123;-57
2022/04/04 06:57:15;;;;;;;19.50;8.63;;;4.60;99.90;;;;;;5091968;28;20456;-59
2022/04/04 06:59:42;;;;;;;17.80;10.38;;;4.60;99.90;;;;;;5091417;28;20421;-59
2022/04/04 07:02:08;;;;;;;15.13;8.23;;;4.60;99.90;;;;;;5090676;28;20074;-59
2022/04/04 07:04:33;;;;;;;14.18;8.10;;;4.60;99.90;;;;;;5090156;28;20111;-59
2022/04/04 07:06:59;;;;;;;19.17;9.13;;;4.60;99.90;;;;;;5090895;28;20107;-57
2022/04/04 07:09:25;;;;;;;21.17;9.15;;;4.60;99.90;;;;;;5091240;28;20490;-58
2022/04/04 07:11:51;;;;;;;17.48;8.57;;;4.70;99.90;;;;;;5091467;28;20008;-57
2022/04/04 07:14:17;;;;;;;15.38;7.93;;;4.70;99.90;;;;;;5090281;28;20024;-56
2022/04/04 07:16:43;;;;;;;17.02;7.63;;;4.80;99.90;;;;;;5090737;28;20379;-59
2022/04/04 07:19:14;;;;;;;16.42;8.48;;;4.90;99.90;;;;;;5087688;28;20032;-59
2022/04/04 07:21:39;;;;;;;16.48;8.98;;;5.00;99.90;;;;;;5090961;28;20606;-56
2022/04/04 07:24:06;;;;;;;17.23;7.50;;;5.10;99.90;;;;;;5090843;28;20031;-59
2022/04/04 07:26:31;;;;;;;17.10;7.60;;;5.20;99.90;;;;;;5089171;28;20020;-59
2022/04/04 07:28:57;;;;;;;12.75;7.18;;;5.40;99.90;;;;;;5080944;28;20024;-57
2022/04/04 07:31:22;;;;;;;14.02;7.38;;;5.60;99.90;;;;;;5088953;28;20077;-56
2022/04/04 07:33:48;;;;;;;14.05;6.80;;;5.70;99.90;;;;;;5089471;28;20024;-58
2022/04/04 07:36:14;;;;;;;14.43;7.22;;;5.90;99.90;;;;;;5088648;28;20020;-57
2022/04/04 07:38:40;;;;;;;15.18;7.30;;;6.00;99.90;;;;;;5088457;28;20039;-59
2022/04/04 07:41:05;;;;;;;14.73;6.72;;;6.00;99.90;;;;;;5091060;28;20024;-60
2022/04/04 07:43:31;;;;;;;11.05;6.65;;;6.10;99.90;;;;;;5089904;28;20458;-58
2022/04/04 07:45:57;;;;;;;15.25;6.60;;;6.20;99.90;;;;;;5091454;28;20103;-58
2022/04/04 07:48:22;;;;;;;12.15;6.63;;;6.20;99.90;;;;;;5090053;28;20493;-59
2022/04/04 07:50:48;;;;;;;11.75;5.85;;;6.30;99.90;;;;;;5086927;28;20039;-59
2022/04/04 07:53:13;;;;;;;11.60;5.25;;;6.40;99.90;;;;;;5090563;28;20036;-60
2022/04/04 07:55:40;;;;;;;17.13;5.53;;;6.60;99.90;;;;;;5090282;28;20031;-60
2022/04/04 07:58:05;;;;;;;9.38;5.82;;;6.60;99.90;;;;;;5087899;28;20043;-60
2022/04/04 08:00:31;;;;;;;8.90;5.53;;;6.70;99.90;;;;;;5090741;28;20386;-60
2022/04/04 08:02:57;;;;;;;12.38;5.40;;;6.80;99.90;;;;;;5090975;28;20016;-60
2022/04/04 08:05:23;;;;;;;12.02;5.70;;;6.90;99.90;;;;;;5088696;28;20028;-61
2022/04/04 08:07:51;;;;;;;15.43;6.45;;;7.00;99.90;;;;;;5090538;28;20024;-60
2022/04/04 08:10:17;;;;;;;12.68;6.00;;;7.10;99.90;;;;;;5090865;28;20024;-59
2022/04/04 08:12:43;;;;;;;11.27;4.45;;;7.20;99.90;;;;;;5091041;28;20024;-58
2022/04/04 08:15:10;;;;;;;9.55;4.43;;;7.20;99.90;;;;;;5089706;28;20153;-60
2022/04/04 08:17:36;;;;;;;10.27;5.00;;;7.10;99.90;;;;;;5090691;28;20035;-59
2022/04/04 08:20:03;;;;;;;8.52;4.68;;;7.20;99.90;;;;;;5089171;28;20024;-57
2022/04/04 08:22:29;;;;;;;9.82;4.38;;;7.30;99.90;;;;;;5090530;28;20106;-59
2022/04/04 08:24:54;;;;;;;7.28;4.45;;;7.40;99.90;;;;;;5090890;28;20550;-59
2022/04/04 08:27:22;;;;;;;6.68;4.15;;;7.40;99.90;;;;;;5090262;28;20030;-59
2022/04/04 08:29:48;;;;;;;7.93;5.00;;;7.50;99.90;;;;;;5091076;28;20046;-59
2022/04/04 08:32:14;;;;;;;8.30;4.63;;;7.50;99.90;;;;;;5089867;28;20032;-59
2022/04/04 08:34:40;;;;;;;7.15;4.43;;;7.60;99.90;;;;;;5087481;28;20028;-59
2022/04/04 08:37:05;;;;;;;7.05;4.07;;;7.70;99.90;;;;;;5090559;28;20123;-59
2022/04/04 08:39:31;;;;;;;15.48;4.60;;;7.80;99.90;;;;;;5090563;28;20021;-57
2022/04/04 08:41:57;;;;;;;11.85;4.43;;;7.90;99.90;;;;;;5088438;28;20047;-59
2022/04/04 08:44:24;;;;;;;9.95;4.25;;;7.90;99.90;;;;;;5091966;28;20398;-55
2022/04/04 08:46:51;;;;;;;7.53;3.45;;;8.10;99.90;;;;;;5093781;28;20020;-59
2022/04/04 08:49:17;;;;;;;5.53;4.05;;;8.10;99.90;;;;;;5091063;28;20024;-57
2022/04/04 08:51:43;;;;;;;6.63;4.22;;;8.10;99.90;;;;;;5062919;28;20025;-57
2022/04/04 08:54:09;;;;;;;9.05;4.13;;;8.00;99.90;;;;;;5114593;22;20044;-57
2022/04/04 08:56:35;;;;;;;5.35;4.05;;;8.10;99.90;;;;;;5113253;28;20031;-55
2022/04/04 08:59:00;;;;;;;8.32;4.10;;;8.10;99.90;;;;;;5110952;28;20088;-55
2022/04/04 09:01:27;;;;;;;8.43;3.47;;;8.20;99.90;;;;;;5112293;28;20040;-58
2022/04/04 09:04:05;;;;;;;19.88;3.85;;;8.20;99.90;;;;;;5109493;28;20097;-58
2022/04/04 09:06:45;;;;;;;6.93;3.40;;;8.10;99.90;;;;;;5111812;28;20020;-58
2022/04/04 09:09:11;;;;;;;7.85;4.75;;;8.00;99.90;;;;;;5112568;28;20536;-58
2022/04/04 09:11:37;;;;;;;5.95;3.40;;;8.00;99.90;;;;;;5112727;28;20028;-59
2022/04/04 09:14:06;;;;;;;7.53;3.40;;;8.00;99.90;;;;;;5112612;28;20670;-58
2022/04/04 09:16:32;;;;;;;6.80;3.75;;;8.10;99.90;;;;;;5107529;28;20031;-59
2022/04/04 09:18:58;;;;;;;6.57;3.13;;;8.20;99.90;;;;;;5112185;28;20038;-59
2022/04/04 09:21:24;;;;;;;4.75;3.55;;;8.20;99.90;;;;;;5112605;28;20031;-59
2022/04/04 09:23:58;;;;;;;11.80;5.13;;;8.20;99.90;;;;;;5107533;28;20069;-58
2022/04/04 09:26:36;;;;;;;7.22;3.63;;;8.10;99.90;;;;;;5106086;28;20509;-60
2022/04/04 09:29:12;;;;;;;6.55;3.40;;;8.00;99.90;;;;;;5106314;28;20032;-60
2022/04/04 09:31:51;;;;;;;9.48;3.28;;;8.00;99.90;;;;;;5107864;28;20024;-59
2022/04/04 09:34:17;;;;;;;7.53;3.28;;;8.10;99.90;;;;;;5112464;28;20051;-59
2022/04/04 09:36:46;;;;;;;6.78;3.80;;;8.10;99.90;;;;;;5112656;28;20120;-58
2022/04/04 09:39:15;;;;;;;7.20;3.75;;;8.20;99.90;;;;;;5112418;28;20102;-57
2022/04/04 09:41:40;;;;;;;7.60;3.65;;;8.20;99.90;;;;;;5113220;28;20102;-57
2022/04/04 09:44:16;;;;;;;8.02;3.95;;;8.20;99.90;;;;;;5111546;28;20032;-57
2022/04/04 09:46:44;;;;;;;6.70;3.38;;;8.30;99.90;;;;;;5110550;28;20024;-58
2022/04/04 09:49:10;;;;;;;8.20;3.42;;;8.30;99.90;;;;;;5112618;28;20016;-58
2022/04/04 09:51:48;;;;;;;7.68;3.15;;;8.30;99.90;;;;;;5112271;28;20023;-59
2022/04/04 09:54:29;;;;;;;8.43;4.32;;;8.30;99.90;;;;;;5110132;28;20036;-57
2022/04/04 09:57:16;;;;;;;6.32;3.88;;;8.20;99.90;;;;;;5111724;28;20018;-58
2022/04/04 09:59:42;;;;;;;7.72;4.18;;;8.30;99.90;;;;;;5106767;28;20024;-58
2022/04/04 10:02:11;;;;;;;5.40;3.50;;;8.30;99.90;;;;;;5111710;28;20065;-56
2022/04/04 10:04:37;;;;;;;9.13;4.30;;;8.20;99.90;;;;;;5111869;28;20019;-58
2022/04/04 10:07:07;;;;;;;10.15;4.40;;;8.30;99.90;;;;;;5111873;28;20020;-56
2022/04/04 10:09:33;;;;;;;7.50;4.32;;;8.30;99.90;;;;;;5111840;28;20020;-58
2022/04/04 10:11:59;;;;;;;9.50;4.38;;;8.20;99.90;;;;;;5111759;28;20048;-57
2022/04/04 10:14:25;;;;;;;6.53;4.18;;;8.20;99.90;;;;;;5108586;28;20023;-59
2022/04/04 10:16:54;;;;;;;8.98;4.45;;;8.20;99.90;;;;;;5111281;28;20518;-59
2022/04/04 10:19:21;;;;;;;8.98;4.25;;;8.20;99.90;;;;;;5110802;28;20095;-58
2022/04/04 10:21:47;;;;;;;9.55;4.30;;;8.20;99.90;;;;;;5111419;28;20022;-57
2022/04/04 10:24:13;;;;;;;13.05;4.70;;;8.20;99.90;;;;;;5111038;28;20092;-59
2022/04/04 10:26:40;;;;;;;18.73;4.93;;;8.20;99.90;;;;;;5111510;28;20473;-59
2022/04/04 10:29:19;;;;;;;11.65;5.13;;;8.30;99.90;;;;;;5104861;28;20393;-59
2022/04/04 10:31:48;;;;;;;9.40;4.97;;;8.30;99.90;;;;;;5104541;28;20062;-59
2022/04/04 10:34:22;;;;;;;7.65;4.85;;;8.30;99.90;;;;;;5107768;28;20043;-59
2022/04/04 10:36:57;;;;;;;8.40;5.13;;;8.40;99.90;;;;;;5106038;28;20106;-59
2022/04/04 10:39:39;;;;;;;8.45;4.43;;;8.40;99.90;;;;;;5111757;28;20030;-58
2022/04/04 10:42:31;;;;;;;12.50;5.15;;;8.30;99.90;;;;;;5108480;27;20024;-59
2022/04/04 10:45:00;;;;;;;10.60;5.07;;;8.30;99.90;;;;;;5106514;28;20042;-59
2022/04/04 10:47:28;;;;;;;10.07;4.93;;;8.30;99.90;;;;;;5112390;28;20019;-60
2022/04/04 10:49:58;;;;;;;9.93;5.45;;;8.30;99.90;;;;;;5112313;28;20032;-60
2022/04/04 10:52:41;;;;;;;14.07;4.60;;;8.40;99.90;;;;;;5109380;28;20036;-58
2022/04/04 10:55:27;;;;;;;10.55;4.70;;;8.50;99.90;;;;;;5110416;28;20046;-59
2022/04/04 10:58:21;;;;;;;9.40;4.80;;;8.50;99.90;;;;;;5105558;28;20077;-60
2022/04/04 11:00:55;;;;;;;9.20;4.93;;;8.30;99.90;;;;;;5105250;28;20489;-59
2022/04/04 11:03:27;;;;;;;;;;;8.30;99.90;;;;;;5112470;28;20055;-57
2022/04/04 11:09:16;;;;;;;10.90;4.65;;;8.50;99.90;;;;;;5110751;28;20508;-58
2022/04/04 11:12:00;;;;;;;8.77;5.30;;;8.40;99.90;;;;;;5110258;28;20034;-57
2022/04/04 11:14:31;;;;;;;;;;;8.40;99.90;;;;;;5112866;28;20024;-58
2022/04/04 11:17:08;;;;;;;11.18;5.03;;;8.20;99.90;;;;;;5113273;28;19903;-59
2022/04/04 11:19:57;;;;;;;6.95;4.43;;;8.00;99.90;;;;;;5111320;28;20062;-60
2022/04/04 11:22:25;;;;;;;12.55;5.38;;;7.90;99.90;;;;;;5113598;27;20024;-60
2022/04/04 11:24:55;;;;;;;7.93;4.78;;;7.60;99.90;;;;;;5111369;27;20040;-59
2022/04/04 11:27:23;;;;;;;9.20;4.93;;;7.60;99.90;;;;;;5108908;28;20058;-61
2022/04/04 11:29:49;;;;;;;8.35;4.43;;;7.50;99.90;;;;;;5112040;28;20034;-59
2022/04/04 11:32:31;;;;;;;14.88;4.97;;;7.50;99.90;;;;;;5111339;28;20020;-60
2022/04/04 11:34:59;;;;;;;9.02;4.65;;;7.50;99.90;;;;;;5111734;28;20053;-60
2022/04/04 11:37:27;;;;;;;10.45;5.07;;;7.40;99.90;;;;;;5112190;28;20024;-60
2022/04/04 11:40:03;;;;;;;11.00;4.90;;;7.50;99.90;;;;;;5107697;28;20034;-60
2022/04/04 11:42:30;;;;;;;13.65;4.47;;;7.60;99.90;;;;;;5111632;28;20154;-59
2022/04/04 11:44:58;;;;;;;11.45;4.90;;;7.60;99.90;;;;;;5110876;28;20411;-60
2022/04/04 11:47:24;;;;;;;7.43;4.75;;;7.70;99.90;;;;;;5110998;28;20031;-59
2022/04/04 11:49:53;;;;;;;16.30;6.22;;;7.60;99.90;;;;;;5111382;28;20016;-59
2022/04/04 11:52:19;;;;;;;9.32;5.75;;;7.50;99.90;;;;;;5110422;28;20034;-60
2022/04/04 11:54:50;;;;;;;10.32;6.28;;;7.40;99.90;;;;;;5110232;28;20039;-60
2022/04/04 11:57:16;;;;;;;9.73;5.68;;;7.40;99.90;;;;;;5111240;28;20032;-59
2022/04/04 11:59:47;;;;;;;9.52;5.57;;;7.30;99.90;;;;;;5103494;28;20052;-62
2022/04/04 12:02:14;;;;;;;10.63;6.07;;;7.30;99.90;;;;;;5098488;28;20497;-60
2022/04/04 12:04:42;;;;;;;8.75;6.38;;;7.30;99.90;;;;;;5104308;28;20032;-60
2022/04/04 12:07:09;;;;;;;16.83;6.50;;;7.10;99.90;;;;;;5102263;28;20022;-60
2022/04/04 12:09:36;;;;;;;10.10;6.25;;;7.00;99.90;;;;;;5110175;28;20035;-61
2022/04/04 12:12:12;;;;;;;12.60;6.65;;;7.00;99.90;;;;;;5104853;28;20396;-60
2022/04/04 12:14:39;;;;;;;13.18;7.28;;;7.00;99.90;;;;;;5106985;28;20016;-59
2022/04/04 12:17:07;;;;;;;11.80;5.82;;;7.00;99.90;;;;;;5106570;28;20024;-58
2022/04/04 12:19:44;;;;;;;12.77;6.70;;;7.00;99.90;;;;;;5102608;28;20039;-60
2022/04/04 12:24:55;;;;;;;8.82;6.00;;;6.80;99.90;;;;;;5101136;28;20501;-61
2022/04/04 12:27:21;;;;;;;10.55;6.18;;;6.70;99.90;;;;;;5106340;28;20023;-60
2022/04/04 12:29:47;;;;;;;11.90;6.97;;;6.70;99.90;;;;;;5109400;27;20028;-61
2022/04/04 12:32:18;;;;;;;8.65;6.60;;;6.70;99.90;;;;;;5105314;28;20400;-61
2022/04/04 12:34:59;;;;;;;14.90;6.57;;;6.70;99.90;;;;;;5106640;28;20102;-60
2022/04/04 12:37:39;;;;;;;8.68;6.55;;;6.70;99.90;;;;;;5109504;28;20028;-60
2022/04/04 12:40:25;;;;;;;16.33;8.45;;;6.70;99.90;;;;;;5101596;28;20366;-60
2022/04/04 12:43:03;;;;;;;14.27;7.63;;;6.50;99.90;;;;;;5103358;28;20012;-61
2022/04/04 12:45:31;;;;;;;16.13;8.07;;;6.70;99.90;;;;;;5107763;28;20023;-61
2022/04/04 12:48:04;;;;;;;17.95;7.63;;;6.60;99.90;;;;;;5104509;28;20020;-59
2022/04/04 12:50:37;;;;;;;12.10;7.57;;;6.70;99.90;;;;;;5103095;28;20096;-60
2022/04/04 12:53:04;;;;;;;11.20;7.95;;;6.60;99.90;;;;;;5103121;28;20058;-61
2022/04/04 12:55:30;;;;;;;14.57;9.30;;;6.60;99.90;;;;;;5102125;27;20044;-60
2022/04/04 12:58:13;;;;;;;17.77;9.25;;;6.40;99.90;;;;;;5108384;28;20024;-61
2022/04/04 13:00:40;;;;;;;17.50;10.52;;;6.40;99.90;;;;;;5104987;28;20066;-61